sensor_id;sensor_type;location;lat;lon;timestamp;pressure;altitude;pressure_sealevel;temperature;humidity
62333;BME280;48624;49.812;8.562;2024-02-14T00:00:52;100983.91;;;6.10;84.09
62333;BME280;48624;49.812;8.562;2024-02-14T00:03:18;100976.78;;;6.12;84.35
62333;BME280;48624;49.812;8.562;2024-02-14T00:05:45;100974.91;;;6.16;84.16
62333;BME280;48624;49.812;8.562;2024-02-14T00:08:10;100977.81;;;6.30;83.65
62333;BME280;48624;49.812;8.562;2024-02-14T00:10:35;100982.41;;;6.25;83.75
62333;BME280;48624;49.812;8.562;2024-02-14T00:13:01;100980.63;;;6.25;83.49
62333;BME280;48624;49.812;8.562;2024-02-14T00:15:27;100978.19;;;6.21;83.88
62333;BME280;48624;49.812;8.562;2024-02-14T00:17:52;100980.94;;;6.18;84.33
62333;BME280;48624;49.812;8.562;2024-02-14T00:20:18;100977.00;;;6.28;83.66
62333;BME280;48624;49.812;8.562;2024-02-14T00:22:45;100970.38;;;6.40;83.23
62333;BME280;48624;49.812;8.562;2024-02-14T00:25:10;100975.34;;;6.25;83.20
62333;BME280;48624;49.812;8.562;2024-02-14T00:27:36;100976.63;;;6.37;83.36
62333;BME280;48624;49.812;8.562;2024-02-14T00:30:01;100974.28;;;6.31;83.38
62333;BME280;48624;49.812;8.562;2024-02-14T00:32:28;100975.34;;;6.25;83.36
62333;BME280;48624;49.812;8.562;2024-02-14T00:34:53;100985.44;;;6.36;82.41
62333;BME280;48624;49.812;8.562;2024-02-14T00:37:19;100980.00;;;6.41;82.68
62333;BME280;48624;49.812;8.562;2024-02-14T00:39:45;100976.91;;;6.31;83.08
62333;BME280;48624;49.812;8.562;2024-02-14T00:42:11;100975.50;;;6.43;82.82
62333;BME280;48624;49.812;8.562;2024-02-14T00:44:37;100976.44;;;6.42;82.80
62333;BME280;48624;49.812;8.562;2024-02-14T00:47:02;100978.72;;;6.29;84.07
62333;BME280;48624;49.812;8.562;2024-02-14T00:49:28;100954.69;;;6.16;84.92
62333;BME280;48624;49.812;8.562;2024-02-14T00:51:53;100960.41;;;6.05;85.22
62333;BME280;48624;49.812;8.562;2024-02-14T00:54:19;100963.63;;;5.90;85.96
62333;BME280;48624;49.812;8.562;2024-02-14T00:56:44;100972.13;;;5.96;86.25
62333;BME280;48624;49.812;8.562;2024-02-14T00:59:09;100970.84;;;6.07;85.92
62333;BME280;48624;49.812;8.562;2024-02-14T01:01:35;100964.69;;;5.86;87.01
62333;BME280;48624;49.812;8.562;2024-02-14T01:04:00;100965.47;;;5.88;87.39
62333;BME280;48624;49.812;8.562;2024-02-14T01:06:26;100957.84;;;6.04;86.64
62333;BME280;48624;49.812;8.562;2024-02-14T01:08:51;100952.25;;;5.89;87.06
62333;BME280;48624;49.812;8.562;2024-02-14T01:11:16;100951.81;;;5.78;87.85
62333;BME280;48624;49.812;8.562;2024-02-14T01:13:42;100943.09;;;5.77;87.91
62333;BME280;48624;49.812;8.562;2024-02-14T01:16:09;100936.13;;;5.76;87.98
62333;BME280;48624;49.812;8.562;2024-02-14T01:18:34;100934.13;;;5.59;87.99
62333;BME280;48624;49.812;8.562;2024-02-14T01:21:00;100930.72;;;5.79;87.82
62333;BME280;48624;49.812;8.562;2024-02-14T01:23:26;100929.78;;;5.58;88.95
62333;BME280;48624;49.812;8.562;2024-02-14T01:25:52;100935.22;;;5.53;89.09
62333;BME280;48624;49.812;8.562;2024-02-14T01:28:19;100933.47;;;5.54;89.56
62333;BME280;48624;49.812;8.562;2024-02-14T01:30:45;100928.81;;;5.61;89.46
62333;BME280;48624;49.812;8.562;2024-02-14T01:33:10;100928.88;;;5.59;89.30
62333;BME280;48624;49.812;8.562;2024-02-14T01:35:35;100926.88;;;5.44;89.76
62333;BME280;48624;49.812;8.562;2024-02-14T01:38:00;100925.91;;;5.46;90.14
62333;BME280;48624;49.812;8.562;2024-02-14T01:40:28;100918.53;;;5.54;89.85
62333;BME280;48624;49.812;8.562;2024-02-14T01:42:53;100918.88;;;5.69;89.39
62333;BME280;48624;49.812;8.562;2024-02-14T01:45:18;100905.53;;;5.51;89.71
62333;BME280;48624;49.812;8.562;2024-02-14T01:47:44;100911.19;;;5.40;90.19
62333;BME280;48624;49.812;8.562;2024-02-14T01:50:09;100916.78;;;5.55;90.63
62333;BME280;48624;49.812;8.562;2024-02-14T01:52:37;100903.81;;;5.50;90.55
62333;BME280;48624;49.812;8.562;2024-02-14T01:55:04;100896.13;;;5.46;90.66
62333;BME280;48624;49.812;8.562;2024-02-14T01:57:31;100901.94;;;5.54;90.19
62333;BME280;48624;49.812;8.562;2024-02-14T01:59:58;100895.38;;;5.64;90.08
62333;BME280;48624;49.812;8.562;2024-02-14T02:02:25;100895.75;;;5.55;90.28
62333;BME280;48624;49.812;8.562;2024-02-14T02:04:51;100899.13;;;5.59;90.30
62333;BME280;48624;49.812;8.562;2024-02-14T02:07:17;100901.25;;;5.49;90.88
62333;BME280;48624;49.812;8.562;2024-02-14T02:09:44;100907.06;;;5.57;90.70
62333;BME280;48624;49.812;8.562;2024-02-14T02:12:09;100902.50;;;5.62;90.74
62333;BME280;48624;49.812;8.562;2024-02-14T02:14:34;100905.03;;;5.64;90.70
62333;BME280;48624;49.812;8.562;2024-02-14T02:17:00;100894.84;;;5.56;91.33
62333;BME280;48624;49.812;8.562;2024-02-14T02:19:25;100896.06;;;5.69;90.59
62333;BME280;48624;49.812;8.562;2024-02-14T02:21:50;100899.06;;;5.60;90.49
62333;BME280;48624;49.812;8.562;2024-02-14T02:24:17;100889.75;;;5.51;91.44
62333;BME280;48624;49.812;8.562;2024-02-14T02:26:43;100893.69;;;5.63;90.67
62333;BME280;48624;49.812;8.562;2024-02-14T02:29:09;100892.03;;;5.61;91.39
62333;BME280;48624;49.812;8.562;2024-02-14T02:31:34;100890.69;;;5.73;91.04
62333;BME280;48624;49.812;8.562;2024-02-14T02:33:59;100899.06;;;5.60;91.19
62333;BME280;48624;49.812;8.562;2024-02-14T02:36:24;100894.41;;;5.67;91.57
62333;BME280;48624;49.812;8.562;2024-02-14T02:38:50;100889.94;;;5.69;91.40
62333;BME280;48624;49.812;8.562;2024-02-14T02:41:15;100890.72;;;5.71;91.50
62333;BME280;48624;49.812;8.562;2024-02-14T02:43:41;100899.78;;;5.86;90.91
62333;BME280;48624;49.812;8.562;2024-02-14T02:46:09;100897.88;;;6.12;90.07
62333;BME280;48624;49.812;8.562;2024-02-14T02:48:34;100902.34;;;5.88;90.25
62333;BME280;48624;49.812;8.562;2024-02-14T02:50:59;100906.88;;;6.06;90.12
62333;BME280;48624;49.812;8.562;2024-02-14T02:53:25;100916.16;;;6.15;89.59
62333;BME280;48624;49.812;8.562;2024-02-14T02:55:50;100917.81;;;6.18;89.68
62333;BME280;48624;49.812;8.562;2024-02-14T02:58:16;100914.63;;;6.09;89.72
62333;BME280;48624;49.812;8.562;2024-02-14T03:00:42;100914.06;;;6.23;89.30
62333;BME280;48624;49.812;8.562;2024-02-14T03:03:08;100905.31;;;6.23;89.45
62333;BME280;48624;49.812;8.562;2024-02-14T03:05:33;100914.38;;;6.16;89.42
62333;BME280;48624;49.812;8.562;2024-02-14T03:07:59;100927.09;;;6.27;89.37
62333;BME280;48624;49.812;8.562;2024-02-14T03:10:26;100913.22;;;6.23;89.79
62333;BME280;48624;49.812;8.562;2024-02-14T03:12:51;100909.38;;;6.30;89.65
62333;BME280;48624;49.812;8.562;2024-02-14T03:15:18;100922.44;;;6.33;89.02
62333;BME280;48624;49.812;8.562;2024-02-14T03:17:44;100929.59;;;6.30;89.47
62333;BME280;48624;49.812;8.562;2024-02-14T03:20:10;100931.16;;;6.34;89.70
62333;BME280;48624;49.812;8.562;2024-02-14T03:22:41;100931.16;;;6.34;89.43
62333;BME280;48624;49.812;8.562;2024-02-14T03:25:13;100928.91;;;6.24;90.08
62333;BME280;48624;49.812;8.562;2024-02-14T03:27:41;100932.66;;;6.39;89.48
62333;BME280;48624;49.812;8.562;2024-02-14T03:30:07;100924.09;;;6.36;89.92
62333;BME280;48624;49.812;8.562;2024-02-14T03:32:32;100927.34;;;6.62;89.20
62333;BME280;48624;49.812;8.562;2024-02-14T03:34:58;100925.06;;;6.33;89.74
62333;BME280;48624;49.812;8.562;2024-02-14T03:37:23;100921.91;;;6.46;89.93
62333;BME280;48624;49.812;8.562;2024-02-14T03:39:49;100926.31;;;6.45;89.70
62333;BME280;48624;49.812;8.562;2024-02-14T03:42:14;100921.56;;;6.33;90.13
62333;BME280;48624;49.812;8.562;2024-02-14T03:44:40;100926.03;;;6.31;90.08
62333;BME280;48624;49.812;8.562;2024-02-14T03:47:06;100928.53;;;6.34;89.74
62333;BME280;48624;49.812;8.562;2024-02-14T03:49:31;100927.16;;;6.46;89.13
62333;BME280;48624;49.812;8.562;2024-02-14T03:51:56;100929.34;;;6.57;89.36
62333;BME280;48624;49.812;8.562;2024-02-14T03:54:22;100930.53;;;6.49;88.68
62333;BME280;48624;49.812;8.562;2024-02-14T03:56:48;100924.19;;;6.53;88.50
62333;BME280;48624;49.812;8.562;2024-02-14T03:59:14;100920.97;;;6.47;88.60
62333;BME280;48624;49.812;8.562;2024-02-14T04:01:44;100925.59;;;6.62;88.28
62333;BME280;48624;49.812;8.562;2024-02-14T04:04:09;100931.78;;;6.61;88.35
62333;BME280;48624;49.812;8.562;2024-02-14T04:06:34;100931.06;;;6.77;87.71
62333;BME280;48624;49.812;8.562;2024-02-14T04:09:00;100925.09;;;6.52;88.04
62333;BME280;48624;49.812;8.562;2024-02-14T04:11:25;100924.31;;;6.71;87.34
62333;BME280;48624;49.812;8.562;2024-02-14T04:13:50;100917.19;;;6.73;87.09
62333;BME280;48624;49.812;8.562;2024-02-14T04:16:19;100917.53;;;6.65;87.12
62333;BME280;48624;49.812;8.562;2024-02-14T04:18:44;100921.03;;;6.66;87.35
62333;BME280;48624;49.812;8.562;2024-02-14T04:21:09;100927.59;;;6.76;87.47
62333;BME280;48624;49.812;8.562;2024-02-14T04:23:35;100933.91;;;6.72;87.13
62333;BME280;48624;49.812;8.562;2024-02-14T04:26:00;100934.84;;;6.71;87.40
62333;BME280;48624;49.812;8.562;2024-02-14T04:28:26;100940.09;;;6.71;86.95
62333;BME280;48624;49.812;8.562;2024-02-14T04:30:51;100927.09;;;6.87;87.01
62333;BME280;48624;49.812;8.562;2024-02-14T04:33:18;100919.56;;;6.79;86.97
62333;BME280;48624;49.812;8.562;2024-02-14T04:35:45;100927.59;;;6.76;86.77
62333;BME280;48624;49.812;8.562;2024-02-14T04:38:10;100932.72;;;6.79;86.89
62333;BME280;48624;49.812;8.562;2024-02-14T04:40:35;100933.97;;;6.91;86.39
62333;BME280;48624;49.812;8.562;2024-02-14T04:43:00;100940.72;;;6.97;86.81
62333;BME280;48624;49.812;8.562;2024-02-14T04:45:27;100935.00;;;6.87;86.50
62333;BME280;48624;49.812;8.562;2024-02-14T04:47:52;100935.22;;;6.83;86.55
62333;BME280;48624;49.812;8.562;2024-02-14T04:50:17;100929.69;;;6.89;87.11
62333;BME280;48624;49.812;8.562;2024-02-14T04:52:44;100939.28;;;6.90;86.82
62333;BME280;48624;49.812;8.562;2024-02-14T04:55:09;100938.66;;;6.85;86.76
62333;BME280;48624;49.812;8.562;2024-02-14T04:57:35;100950.13;;;7.03;86.27
62333;BME280;48624;49.812;8.562;2024-02-14T05:00:02;100951.13;;;7.00;86.82
62333;BME280;48624;49.812;8.562;2024-02-14T05:02:30;100948.19;;;6.87;86.40
62333;BME280;48624;49.812;8.562;2024-02-14T05:04:56;100942.09;;;7.06;86.71
62333;BME280;48624;49.812;8.562;2024-02-14T05:07:21;100947.09;;;7.12;86.70
62333;BME280;48624;49.812;8.562;2024-02-14T05:09:46;100945.66;;;7.05;87.00
62333;BME280;48624;49.812;8.562;2024-02-14T05:12:14;100947.78;;;6.97;87.01
62333;BME280;48624;49.812;8.562;2024-02-14T05:14:40;100952.63;;;7.06;86.48
62333;BME280;48624;49.812;8.562;2024-02-14T05:17:06;100952.41;;;7.11;86.16
62333;BME280;48624;49.812;8.562;2024-02-14T05:19:31;100947.09;;;7.12;86.72
62333;BME280;48624;49.812;8.562;2024-02-14T05:21:58;100941.47;;;7.01;86.21
62333;BME280;48624;49.812;8.562;2024-02-14T05:24:23;100946.66;;;6.82;86.98
62333;BME280;48624;49.812;8.562;2024-02-14T05:26:52;100959.03;;;7.00;87.42
62333;BME280;48624;49.812;8.562;2024-02-14T05:29:18;100961.09;;;6.93;88.30
62333;BME280;48624;49.812;8.562;2024-02-14T05:31:46;100966.41;;;6.92;88.21
62333;BME280;48624;49.812;8.562;2024-02-14T05:34:13;100961.84;;;6.76;88.47
62333;BME280;48624;49.812;8.562;2024-02-14T05:36:38;100952.47;;;6.90;88.83
62333;BME280;48624;49.812;8.562;2024-02-14T05:39:04;100957.00;;;6.86;88.43
62333;BME280;48624;49.812;8.562;2024-02-14T05:41:31;100948.63;;;6.97;88.14
62333;BME280;48624;49.812;8.562;2024-02-14T05:43:58;100949.00;;;6.89;88.11
62333;BME280;48624;49.812;8.562;2024-02-14T05:46:23;100949.72;;;6.72;88.45
62333;BME280;48624;49.812;8.562;2024-02-14T05:48:48;100947.22;;;6.69;88.92
62333;BME280;48624;49.812;8.562;2024-02-14T05:51:14;100952.41;;;6.91;88.14
62333;BME280;48624;49.812;8.562;2024-02-14T05:53:39;100954.47;;;7.04;87.71
62333;BME280;48624;49.812;8.562;2024-02-14T05:56:05;100958.81;;;6.86;87.87
62333;BME280;48624;49.812;8.562;2024-02-14T05:58:30;100961.09;;;6.93;88.27
62333;BME280;48624;49.812;8.562;2024-02-14T06:00:55;100961.22;;;6.90;88.50
62333;BME280;48624;49.812;8.562;2024-02-14T06:03:22;100957.09;;;6.85;88.12
62333;BME280;48624;49.812;8.562;2024-02-14T06:05:47;100963.41;;;6.80;88.63
62333;BME280;48624;49.812;8.562;2024-02-14T06:08:13;100963.94;;;6.89;87.50
62333;BME280;48624;49.812;8.562;2024-02-14T06:10:38;100963.00;;;6.90;88.29
62333;BME280;48624;49.812;8.562;2024-02-14T06:13:04;100960.53;;;7.06;87.59
62333;BME280;48624;49.812;8.562;2024-02-14T06:15:30;100960.72;;;6.82;88.64
62333;BME280;48624;49.812;8.562;2024-02-14T06:17:55;100966.19;;;6.77;88.69
62333;BME280;48624;49.812;8.562;2024-02-14T06:20:20;100978.75;;;6.91;88.86
62333;BME280;48624;49.812;8.562;2024-02-14T06:22:46;100968.94;;;6.95;89.25
62333;BME280;48624;49.812;8.562;2024-02-14T06:25:11;100980.44;;;6.92;89.99
62333;BME280;48624;49.812;8.562;2024-02-14T06:27:36;100977.75;;;6.94;90.85
62333;BME280;48624;49.812;8.562;2024-02-14T06:30:03;100968.50;;;6.64;92.26
62333;BME280;48624;49.812;8.562;2024-02-14T06:32:28;100977.34;;;6.83;92.82
62333;BME280;48624;49.812;8.562;2024-02-14T06:34:53;100973.91;;;6.61;93.58
62333;BME280;48624;49.812;8.562;2024-02-14T06:37:19;100984.47;;;6.60;94.13
62333;BME280;48624;49.812;8.562;2024-02-14T06:39:45;100989.88;;;6.77;94.05
62333;BME280;48624;49.812;8.562;2024-02-14T06:42:10;100991.84;;;6.72;94.26
62333;BME280;48624;49.812;8.562;2024-02-14T06:44:35;100987.47;;;6.92;93.63
62333;BME280;48624;49.812;8.562;2024-02-14T06:47:01;100994.91;;;6.84;92.97
62333;BME280;48624;49.812;8.562;2024-02-14T06:49:26;100984.66;;;6.76;92.38
62333;BME280;48624;49.812;8.562;2024-02-14T06:51:51;100994.38;;;6.75;92.00
62333;BME280;48624;49.812;8.562;2024-02-14T06:54:16;101002.84;;;6.82;91.35
62333;BME280;48624;49.812;8.562;2024-02-14T06:56:45;101009.16;;;6.78;91.49
62333;BME280;48624;49.812;8.562;2024-02-14T06:59:11;101004.41;;;6.86;91.22
62333;BME280;48624;49.812;8.562;2024-02-14T07:01:36;101011.19;;;6.92;90.82
62333;BME280;48624;49.812;8.562;2024-02-14T07:04:01;101017.13;;;6.97;90.64
62333;BME280;48624;49.812;8.562;2024-02-14T07:06:28;101020.53;;;6.99;89.86
62333;BME280;48624;49.812;8.562;2024-02-14T07:08:53;101022.00;;;7.06;89.40
62333;BME280;48624;49.812;8.562;2024-02-14T07:11:19;101011.19;;;6.92;89.44
62333;BME280;48624;49.812;8.562;2024-02-14T07:13:44;101017.59;;;6.86;89.81
62333;BME280;48624;49.812;8.562;2024-02-14T07:16:09;101015.47;;;6.94;89.86
62333;BME280;48624;49.812;8.562;2024-02-14T07:18:35;101028.84;;;6.69;90.45
62333;BME280;48624;49.812;8.562;2024-02-14T07:21:00;101017.47;;;6.89;90.36
62333;BME280;48624;49.812;8.562;2024-02-14T07:23:28;101018.78;;;6.79;90.13
62333;BME280;48624;49.812;8.562;2024-02-14T07:25:53;101021.09;;;6.87;90.65
62333;BME280;48624;49.812;8.562;2024-02-14T07:28:19;101026.69;;;7.00;90.16
62333;BME280;48624;49.812;8.562;2024-02-14T07:30:44;101021.41;;;7.00;89.95
62333;BME280;48624;49.812;8.562;2024-02-14T07:33:09;101016.38;;;7.14;89.80
62333;BME280;48624;49.812;8.562;2024-02-14T07:35:36;101024.16;;;7.17;89.48
62333;BME280;48624;49.812;8.562;2024-02-14T07:38:02;101017.25;;;7.15;89.78
62333;BME280;48624;49.812;8.562;2024-02-14T07:40:27;101024.38;;;7.13;89.55
62333;BME280;48624;49.812;8.562;2024-02-14T07:42:56;101029.03;;;7.27;89.15
62333;BME280;48624;49.812;8.562;2024-02-14T07:45:21;101028.78;;;7.12;89.39
62333;BME280;48624;49.812;8.562;2024-02-14T07:47:46;101020.03;;;7.12;89.20
62333;BME280;48624;49.812;8.562;2024-02-14T07:50:13;101019.22;;;7.10;89.23
62333;BME280;48624;49.812;8.562;2024-02-14T07:52:44;101028.78;;;7.12;89.60
62333;BME280;48624;49.812;8.562;2024-02-14T07:55:10;101020.31;;;7.25;89.34
62333;BME280;48624;49.812;8.562;2024-02-14T07:57:39;101027.63;;;7.18;89.44
62333;BME280;48624;49.812;8.562;2024-02-14T08:00:07;101030.38;;;7.35;89.21
62333;BME280;48624;49.812;8.562;2024-02-14T08:02:34;101035.09;;;7.29;89.38
62333;BME280;48624;49.812;8.562;2024-02-14T08:05:00;101041.47;;;7.23;89.87
62333;BME280;48624;49.812;8.562;2024-02-14T08:07:25;101043.34;;;7.21;90.10
62333;BME280;48624;49.812;8.562;2024-02-14T08:09:50;101039.06;;;7.38;89.66
62333;BME280;48624;49.812;8.562;2024-02-14T08:12:16;101044.69;;;7.30;90.09
62333;BME280;48624;49.812;8.562;2024-02-14T08:14:41;101033.88;;;7.36;90.49
62333;BME280;48624;49.812;8.562;2024-02-14T08:17:06;101042.41;;;7.22;90.83
62333;BME280;48624;49.812;8.562;2024-02-14T08:19:32;101040.28;;;7.30;90.86
62333;BME280;48624;49.812;8.562;2024-02-14T08:21:57;101051.69;;;7.31;90.67
62333;BME280;48624;49.812;8.562;2024-02-14T08:24:26;101042.00;;;7.50;90.39
62333;BME280;48624;49.812;8.562;2024-02-14T08:26:51;101050.78;;;7.51;90.04
62333;BME280;48624;49.812;8.562;2024-02-14T08:29:16;101040.66;;;7.61;90.28
62333;BME280;48624;49.812;8.562;2024-02-14T08:31:43;101041.66;;;7.58;91.05
62333;BME280;48624;49.812;8.562;2024-02-14T08:34:08;101040.25;;;7.51;90.51
62333;BME280;48624;49.812;8.562;2024-02-14T08:36:34;101044.50;;;7.54;90.84
62333;BME280;48624;49.812;8.562;2024-02-14T08:39:06;101045.50;;;7.70;90.19
62333;BME280;48624;49.812;8.562;2024-02-14T08:41:31;101050.88;;;7.69;90.50
62333;BME280;48624;49.812;8.562;2024-02-14T08:43:57;101052.22;;;7.77;90.88
62333;BME280;48624;49.812;8.562;2024-02-14T08:46:23;101049.53;;;7.79;90.44
62333;BME280;48624;49.812;8.562;2024-02-14T08:48:50;101043.75;;;7.71;90.67
62333;BME280;48624;49.812;8.562;2024-02-14T08:51:16;101036.25;;;7.81;90.06
62333;BME280;48624;49.812;8.562;2024-02-14T08:53:41;101044.78;;;7.67;91.08
62333;BME280;48624;49.812;8.562;2024-02-14T08:56:08;101038.03;;;7.61;91.21
62333;BME280;48624;49.812;8.562;2024-02-14T08:58:34;101046.06;;;7.77;90.72
62333;BME280;48624;49.812;8.562;2024-02-14T09:01:00;101039.66;;;7.63;91.76
62333;BME280;48624;49.812;8.562;2024-02-14T09:03:26;101045.44;;;7.72;91.52
62333;BME280;48624;49.812;8.562;2024-02-14T09:05:51;101036.03;;;7.66;92.29
62333;BME280;48624;49.812;8.562;2024-02-14T09:08:18;101038.38;;;7.91;91.89
62333;BME280;48624;49.812;8.562;2024-02-14T09:10:45;101042.00;;;8.08;91.58
62333;BME280;48624;49.812;8.562;2024-02-14T09:13:11;101036.75;;;7.89;92.32
62333;BME280;48624;49.812;8.562;2024-02-14T09:15:36;101039.66;;;8.02;91.92
62333;BME280;48624;49.812;8.562;2024-02-14T09:18:03;101030.03;;;8.01;92.05
62333;BME280;48624;49.812;8.562;2024-02-14T09:20:28;101029.31;;;8.16;91.97
62333;BME280;48624;49.812;8.562;2024-02-14T09:22:55;101036.84;;;8.05;92.65
62333;BME280;48624;49.812;8.562;2024-02-14T09:25:20;101037.22;;;8.16;92.49
62333;BME280;48624;49.812;8.562;2024-02-14T09:27:49;101039.41;;;8.26;92.24
62333;BME280;48624;49.812;8.562;2024-02-14T09:30:14;101056.34;;;8.39;92.11
62333;BME280;48624;49.812;8.562;2024-02-14T09:32:42;101050.31;;;8.18;92.21
62333;BME280;48624;49.812;8.562;2024-02-14T09:35:07;101061.81;;;8.17;93.22
62333;BME280;48624;49.812;8.562;2024-02-14T09:37:33;101057.84;;;8.45;92.62
62333;BME280;48624;49.812;8.562;2024-02-14T09:39:58;101055.47;;;8.58;92.52
62333;BME280;48624;49.812;8.562;2024-02-14T09:42:50;101060.03;;;8.54;92.04
62333;BME280;48624;49.812;8.562;2024-02-14T09:45:18;101057.94;;;8.61;92.75
62333;BME280;48624;49.812;8.562;2024-02-14T09:47:45;101054.34;;;8.44;93.73
62333;BME280;48624;49.812;8.562;2024-02-14T09:50:12;101065.81;;;8.63;92.95
62333;BME280;48624;49.812;8.562;2024-02-14T09:52:39;101065.94;;;8.77;93.04
62333;BME280;48624;49.812;8.562;2024-02-14T09:55:05;101058.91;;;8.95;92.54
62333;BME280;48624;49.812;8.562;2024-02-14T09:57:32;101063.78;;;8.85;93.34
62333;BME280;48624;49.812;8.562;2024-02-14T10:00:00;101063.66;;;8.88;93.17
62333;BME280;48624;49.812;8.562;2024-02-14T10:02:25;101065.13;;;8.77;94.25
62333;BME280;48624;49.812;8.562;2024-02-14T10:04:51;101064.34;;;8.74;94.53
62333;BME280;48624;49.812;8.562;2024-02-14T10:07:16;101063.00;;;9.01;94.27
62333;BME280;48624;49.812;8.562;2024-02-14T10:09:42;101061.13;;;9.03;94.77
62333;BME280;48624;49.812;8.562;2024-02-14T10:12:08;101073.31;;;9.23;94.30
62333;BME280;48624;49.812;8.562;2024-02-14T10:14:34;101064.97;;;9.31;93.75
62333;BME280;48624;49.812;8.562;2024-02-14T10:17:00;101066.63;;;9.34;93.97
62333;BME280;48624;49.812;8.562;2024-02-14T10:19:25;101062.47;;;9.12;94.49
62333;BME280;48624;49.812;8.562;2024-02-14T10:21:57;101074.31;;;9.38;93.78
62333;BME280;48624;49.812;8.562;2024-02-14T10:24:25;101069.25;;;9.34;94.20
62333;BME280;48624;49.812;8.562;2024-02-14T10:26:51;101072.00;;;9.48;94.09
62333;BME280;48624;49.812;8.562;2024-02-14T10:29:17;101071.16;;;9.48;93.62
62333;BME280;48624;49.812;8.562;2024-02-14T10:31:42;101074.06;;;9.43;93.32
62333;BME280;48624;49.812;8.562;2024-02-14T10:34:07;101073.19;;;9.42;93.01
62333;BME280;48624;49.812;8.562;2024-02-14T10:36:35;101075.13;;;9.39;93.39
62333;BME280;48624;49.812;8.562;2024-02-14T10:39:01;101083.41;;;9.66;93.28
62333;BME280;48624;49.812;8.562;2024-02-14T10:41:30;101095.06;;;9.62;93.25
62333;BME280;48624;49.812;8.562;2024-02-14T10:44:00;101097.66;;;9.64;93.44
62333;BME280;48624;49.812;8.562;2024-02-14T10:46:25;101108.50;;;9.75;92.71
62333;BME280;48624;49.812;8.562;2024-02-14T10:48:58;101101.00;;;9.67;93.34
62333;BME280;48624;49.812;8.562;2024-02-14T10:51:30;101110.06;;;9.79;92.79
62333;BME280;48624;49.812;8.562;2024-02-14T10:53:57;101098.72;;;9.77;93.28
62333;BME280;48624;49.812;8.562;2024-02-14T10:56:28;101088.72;;;9.82;93.92
62333;BME280;48624;49.812;8.562;2024-02-14T10:58:56;101088.19;;;9.76;94.87
62333;BME280;48624;49.812;8.562;2024-02-14T11:01:22;101094.72;;;10.02;94.88
62333;BME280;48624;49.812;8.562;2024-02-14T11:03:50;101086.59;;;10.21;94.80
62333;BME280;48624;49.812;8.562;2024-02-14T11:06:16;101083.88;;;10.55;93.08
62333;BME280;48624;49.812;8.562;2024-02-14T11:08:58;101078.72;;;10.52;92.30
62333;BME280;48624;49.812;8.562;2024-02-14T11:11:28;101083.31;;;10.32;93.56
62333;BME280;48624;49.812;8.562;2024-02-14T11:13:54;101086.41;;;10.57;93.24
62333;BME280;48624;49.812;8.562;2024-02-14T11:16:27;101093.44;;;10.58;92.30
62333;BME280;48624;49.812;8.562;2024-02-14T11:19:05;101099.22;;;10.64;91.23
62333;BME280;48624;49.812;8.562;2024-02-14T11:21:30;101097.41;;;10.65;92.08
62333;BME280;48624;49.812;8.562;2024-02-14T11:23:56;101095.19;;;10.73;91.93
62333;BME280;48624;49.812;8.562;2024-02-14T11:26:21;101087.53;;;10.52;93.24
62333;BME280;48624;49.812;8.562;2024-02-14T11:28:48;101080.94;;;10.60;92.63
62333;BME280;48624;49.812;8.562;2024-02-14T11:31:16;101077.91;;;10.82;91.93
62333;BME280;48624;49.812;8.562;2024-02-14T11:33:42;101074.09;;;10.86;91.77
62333;BME280;48624;49.812;8.562;2024-02-14T11:36:11;101060.03;;;10.69;93.03
62333;BME280;48624;49.812;8.562;2024-02-14T11:38:36;101074.22;;;10.99;91.74
62333;BME280;48624;49.812;8.562;2024-02-14T11:41:02;101072.88;;;10.77;91.94
62333;BME280;48624;49.812;8.562;2024-02-14T11:43:28;101060.38;;;11.39;90.44
62333;BME280;48624;49.812;8.562;2024-02-14T11:45:54;101062.16;;;11.24;90.01
62333;BME280;48624;49.812;8.562;2024-02-14T11:48:19;101071.31;;;11.18;90.41
62333;BME280;48624;49.812;8.562;2024-02-14T11:50:53;101070.94;;;11.10;91.31
62333;BME280;48624;49.812;8.562;2024-02-14T11:53:19;101072.72;;;11.09;91.02
62333;BME280;48624;49.812;8.562;2024-02-14T11:55:45;101070.03;;;10.95;91.50
62333;BME280;48624;49.812;8.562;2024-02-14T11:58:13;101061.16;;;10.96;91.42
62333;BME280;48624;49.812;8.562;2024-02-14T12:00:40;101063.88;;;11.25;91.38
62333;BME280;48624;49.812;8.562;2024-02-14T12:03:23;101060.69;;;11.04;92.06
62333;BME280;48624;49.812;8.562;2024-02-14T12:05:51;101067.75;;;11.48;89.94
62333;BME280;48624;49.812;8.562;2024-02-14T12:08:17;101060.16;;;11.42;91.07
62333;BME280;48624;49.812;8.562;2024-02-14T12:10:43;101060.25;;;11.41;90.80
62333;BME280;48624;49.812;8.562;2024-02-14T12:13:12;101068.22;;;11.55;89.38
62333;BME280;48624;49.812;8.562;2024-02-14T12:15:47;101071.69;;;11.27;91.31
62333;BME280;48624;49.812;8.562;2024-02-14T12:18:13;101068.38;;;11.52;89.81
62333;BME280;48624;49.812;8.562;2024-02-14T12:20:39;101073.41;;;11.13;91.95
62333;BME280;48624;49.812;8.562;2024-02-14T12:23:05;101066.03;;;11.62;89.12
62333;BME280;48624;49.812;8.562;2024-02-14T12:25:34;101067.34;;;11.26;91.42
62333;BME280;48624;49.812;8.562;2024-02-14T12:28:00;101073.50;;;11.41;90.73
62333;BME280;48624;49.812;8.562;2024-02-14T12:30:46;101068.19;;;11.41;90.64
62333;BME280;48624;49.812;8.562;2024-02-14T12:33:14;101064.69;;;11.26;91.81
62333;BME280;48624;49.812;8.562;2024-02-14T12:35:44;101067.19;;;11.29;90.82
62333;BME280;48624;49.812;8.562;2024-02-14T12:38:10;101055.31;;;11.20;91.73
62333;BME280;48624;49.812;8.562;2024-02-14T12:40:35;101048.41;;;11.32;91.73
62333;BME280;48624;49.812;8.562;2024-02-14T12:43:01;101054.75;;;11.29;91.36
62333;BME280;48624;49.812;8.562;2024-02-14T12:45:26;101048.41;;;11.32;92.23
62333;BME280;48624;49.812;8.562;2024-02-14T12:47:52;101047.09;;;11.39;91.08
62333;BME280;48624;49.812;8.562;2024-02-14T12:50:18;101043.75;;;11.06;93.06
62333;BME280;48624;49.812;8.562;2024-02-14T12:52:45;101044.53;;;11.37;92.50